Time;durP1;ratioP1;P1;durP2;ratioP2;P2;SDS_P1;SDS_P2;PMS_P1;PMS_P2;Temp;Humidity;BMP_temperature;BMP_pressure;BME280_temperature;BME280_humidity;BME280_pressure;Samples;Min_cycle;Max_cycle;Signal;HPM_P1;HPM_P2
2021/11/22 00:00:25;;;;;;;6.03;3.60;;;8.80;99.90;;;;;;6235987;23;20191;-85
2021/11/22 00:03:01;;;;;;;4.87;3.87;;;8.70;99.90;;;;;;6236519;23;20164;-85
2021/11/22 00:05:33;;;;;;;5.13;3.50;;;8.60;99.90;;;;;;6233603;23;20172;-85
2021/11/22 00:08:06;;;;;;;5.07;4.13;;;8.50;99.90;;;;;;6234341;23;20192;-84
2021/11/22 00:10:38;;;;;;;7.37;4.10;;;8.50;99.90;;;;;;6234239;23;20203;-85
2021/11/22 00:13:10;;;;;;;4.93;3.80;;;8.50;99.90;;;;;;6234755;23;20243;-85
2021/11/22 00:15:43;;;;;;;4.80;3.40;;;8.40;99.90;;;;;;6234441;23;20235;-84
2021/11/22 00:18:17;;;;;;;6.07;4.17;;;8.30;99.90;;;;;;6234752;23;20243;-84
2021/11/22 00:20:49;;;;;;;4.90;3.50;;;8.20;99.90;;;;;;6235477;23;20168;-84
2021/11/22 00:23:22;;;;;;;4.80;3.73;;;8.10;99.90;;;;;;6233858;23;20653;-85
2021/11/22 00:25:53;;;;;;;4.07;3.57;;;7.90;99.90;;;;;;6233994;23;20239;-84
2021/11/22 00:39:21;;;;;;;5.07;4.27;;;7.40;99.90;;;;;;6267026;22;20193;-85
2021/11/22 00:41:56;;;;;;;5.63;3.80;;;7.20;99.90;;;;;;6270930;22;20179;-85
2021/11/22 00:44:28;;;;;;;6.20;4.57;;;7.10;99.90;;;;;;6270217;22;20232;-84
2021/11/22 00:47:02;;;;;;;6.13;4.30;;;7.00;99.90;;;;;;6268274;22;20180;-84
2021/11/22 00:49:38;;;;;;;5.13;3.83;;;6.90;99.90;;;;;;6267670;23;20203;-85
2021/11/22 00:52:10;;;;;;;5.17;4.03;;;6.90;99.90;;;;;;6265900;22;20201;-83
2021/11/22 00:54:43;;;;;;;5.77;4.30;;;6.80;99.90;;;;;;6265184;23;20193;-86
2021/11/22 00:57:15;;;;;;;5.90;4.70;;;6.70;99.90;;;;;;6267182;23;20180;-84
2021/11/22 00:59:47;;;;;;;7.23;4.57;;;6.60;99.90;;;;;;6265080;23;20255;-85
2021/11/22 01:02:21;;;;;;;5.17;4.43;;;6.50;99.90;;;;;;6266474;22;20243;-85
2021/11/22 01:04:55;;;;;;;6.03;4.20;;;6.40;99.90;;;;;;6268277;23;20181;-84
2021/11/22 01:07:28;;;;;;;6.03;4.90;;;6.30;99.90;;;;;;6269618;23;20181;-84
2021/11/22 01:10:03;;;;;;;5.67;4.13;;;6.20;99.90;;;;;;6268817;22;20698;-85
2021/11/22 01:12:36;;;;;;;6.10;4.60;;;6.10;99.90;;;;;;6267979;22;20167;-84
2021/11/22 01:15:12;;;;;;;7.60;4.60;;;5.90;99.90;;;;;;6265560;22;20190;-87
2021/11/22 01:17:50;;;;;;;6.83;4.83;;;5.90;99.90;;;;;;6268675;23;20171;-84
2021/11/22 01:20:28;;;;;;;9.83;7.37;;;5.90;99.90;;;;;;6270798;22;20173;-84
2021/11/22 01:23:02;;;;;;;7.20;5.17;;;5.90;99.90;;;;;;6267451;22;20187;-84
2021/11/22 01:25:38;;;;;;;6.10;5.07;;;5.90;99.90;;;;;;6268969;22;20168;-83
2021/11/22 01:28:10;;;;;;;9.30;8.00;;;5.80;99.90;;;;;;6268579;22;20204;-85
2021/11/22 01:30:43;;;;;;;15.17;11.60;;;5.80;99.90;;;;;;6263579;22;20172;-83
2021/11/22 01:33:15;;;;;;;9.37;6.27;;;5.70;99.90;;;;;;6265375;22;20176;-84
2021/11/22 01:35:49;;;;;;;7.70;6.90;;;5.60;99.90;;;;;;6264040;23;20176;-84
2021/11/22 01:38:22;;;;;;;8.00;6.53;;;5.50;99.90;;;;;;6267018;23;20183;-85
2021/11/22 01:40:57;;;;;;;8.53;6.70;;;5.40;99.90;;;;;;6266581;22;20202;-85
2021/11/22 01:43:31;;;;;;;11.10;7.70;;;5.30;99.90;;;;;;6271291;22;20168;-84
2021/11/22 01:46:03;;;;;;;10.77;7.90;;;5.20;99.90;;;;;;6267175;22;20172;-84
2021/11/22 01:48:48;;;;;;;8.90;6.97;;;5.20;99.90;;;;;;6266691;22;20212;-85
2021/11/22 01:51:22;;;;;;;8.10;7.00;;;5.20;99.90;;;;;;6266904;23;20172;-85
2021/11/22 01:54:02;;;;;;;15.63;10.90;;;5.20;99.90;;;;;;6264976;22;20261;-85
2021/11/22 01:56:37;;;;;;;11.93;8.57;;;5.20;99.90;;;;;;6262899;22;20184;-84
2021/11/22 01:59:09;;;;;;;7.97;6.50;;;5.10;99.90;;;;;;6267843;23;20246;-85
2021/11/22 02:01:41;;;;;;;8.73;6.80;;;5.10;99.90;;;;;;6264548;23;20175;-84
2021/11/22 02:04:13;;;;;;;8.73;6.10;;;5.10;99.90;;;;;;6265449;22;20168;-85
2021/11/22 02:06:45;;;;;;;9.23;6.33;;;5.10;99.90;;;;;;6260417;23;20202;-85
2021/11/22 02:09:17;;;;;;;9.37;6.37;;;5.10;99.90;;;;;;6260868;23;20203;-84
2021/11/22 02:11:52;;;;;;;10.13;7.10;;;5.10;99.90;;;;;;6266678;23;20163;-83
2021/11/22 02:14:24;;;;;;;9.00;7.20;;;5.00;99.90;;;;;;6272715;22;20167;-84
2021/11/22 02:16:56;;;;;;;9.37;7.30;;;5.00;99.90;;;;;;6268654;22;20163;-84
2021/11/22 02:19:28;;;;;;;9.13;7.60;;;5.00;99.90;;;;;;6265049;23;20206;-85
2021/11/22 02:22:04;;;;;;;10.23;8.43;;;5.00;99.90;;;;;;6267152;22;20219;-84
2021/11/22 02:24:36;;;;;;;8.40;6.63;;;5.00;99.90;;;;;;6266707;23;20194;-84
2021/11/22 02:27:10;;;;;;;11.13;7.20;;;5.00;99.90;;;;;;6266428;22;20233;-85
2021/11/22 02:29:45;;;;;;;11.03;8.57;;;5.00;99.90;;;;;;6266480;22;20696;-85
2021/11/22 02:32:17;;;;;;;12.30;8.77;;;5.00;99.90;;;;;;6265716;23;20206;-83
2021/11/22 02:34:50;;;;;;;14.23;10.77;;;4.90;99.90;;;;;;6266328;23;20168;-84
2021/11/22 02:37:27;;;;;;;13.00;11.03;;;4.90;99.90;;;;;;6272601;22;20162;-85
2021/11/22 02:39:59;;;;;;;15.53;12.37;;;4.80;99.90;;;;;;6271906;23;20152;-85
2021/11/22 02:42:34;;;;;;;14.60;12.03;;;4.60;99.90;;;;;;6271300;22;20186;-84
2021/11/22 02:45:10;;;;;;;11.57;10.17;;;4.60;99.90;;;;;;6271878;22;20164;-85
2021/11/22 02:47:42;;;;;;;13.57;11.80;;;4.70;99.90;;;;;;6271519;22;20171;-83
2021/11/22 02:50:19;;;;;;;14.90;11.87;;;4.60;99.90;;;;;;6271189;22;20239;-85
2021/11/22 02:52:53;;;;;;;12.27;10.53;;;4.50;99.90;;;;;;6272866;22;20192;-83
2021/11/22 02:55:24;;;;;;;11.63;9.20;;;4.50;99.90;;;;;;6270368;23;20856;-84
2021/11/22 02:57:57;;;;;;;14.27;10.17;;;4.50;99.90;;;;;;6271931;22;20176;-83
2021/11/22 03:03:09;;;;;;;14.03;10.63;;;4.50;99.90;;;;;;6267753;22;20207;-85
2021/11/22 03:05:40;;;;;;;15.90;11.90;;;4.50;99.90;;;;;;6264648;23;20176;-84
2021/11/22 03:08:17;;;;;;;14.60;11.27;;;4.40;99.90;;;;;;6270066;22;20626;-85
2021/11/22 03:10:50;;;;;;;13.47;11.10;;;4.30;99.90;;;;;;6265839;22;20202;-84
2021/11/22 03:13:22;;;;;;;13.20;10.07;;;4.30;99.90;;;;;;6263435;23;20219;-85
2021/11/22 03:15:54;;;;;;;14.37;10.93;;;4.40;99.90;;;;;;6267495;22;20178;-84
2021/11/22 03:18:27;;;;;;;16.27;11.47;;;4.40;99.90;;;;;;6265241;22;20176;-85
2021/11/22 03:21:00;;;;;;;15.80;12.30;;;4.50;99.90;;;;;;6265647;22;20175;-85
2021/11/22 03:23:42;;;;;;;18.30;12.30;;;4.50;99.90;;;;;;6264920;22;20184;-85
2021/11/22 03:26:15;;;;;;;16.57;11.53;;;4.50;99.90;;;;;;6264958;22;20164;-85
2021/11/22 03:28:47;;;;;;;13.77;10.83;;;4.40;99.90;;;;;;6264900;22;20507;-85
2021/11/22 03:31:19;;;;;;;16.10;10.97;;;4.40;99.90;;;;;;6273217;22;20259;-84
2021/11/22 03:33:51;;;;;;;14.43;10.13;;;4.40;99.90;;;;;;6269204;22;20200;-85
2021/11/22 03:36:23;;;;;;;22.87;15.47;;;4.50;99.90;;;;;;6272887;22;20236;-84
2021/11/22 03:38:57;;;;;;;20.17;14.23;;;4.50;99.90;;;;;;6273832;22;20183;-85
2021/11/22 03:41:32;;;;;;;22.03;15.43;;;4.50;99.90;;;;;;6272966;22;20155;-85
2021/11/22 03:44:10;;;;;;;22.27;15.40;;;4.50;99.90;;;;;;6271053;22;20186;-85
2021/11/22 03:46:45;;;;;;;19.37;14.33;;;4.50;99.90;;;;;;6269848;22;20171;-84
2021/11/22 03:49:17;;;;;;;17.00;13.10;;;4.40;99.90;;;;;;6269531;22;20334;-84
2021/11/22 03:51:53;;;;;;;16.30;11.80;;;4.50;99.90;;;;;;6255671;22;20168;-85
2021/11/22 03:54:27;;;;;;;17.53;13.50;;;4.40;99.90;;;;;;6255450;22;20190;-84
2021/11/22 03:57:00;;;;;;;16.47;11.47;;;4.40;99.90;;;;;;6261629;22;20191;-84
2021/11/22 03:59:36;;;;;;;16.17;11.40;;;4.50;99.90;;;;;;6261179;22;20297;-85
2021/11/22 04:02:15;;;;;;;12.27;10.27;;;4.40;99.90;;;;;;6270858;23;20220;-85
2021/11/22 04:04:51;;;;;;;13.93;10.60;;;4.50;99.90;;;;;;6268138;23;20175;-85
2021/11/22 04:07:23;;;;;;;14.87;10.90;;;4.50;99.90;;;;;;6264473;22;20242;-85
2021/11/22 04:09:58;;;;;;;15.63;10.90;;;4.40;99.90;;;;;;6268741;23;20192;-84
2021/11/22 04:12:34;;;;;;;17.20;11.77;;;4.40;99.90;;;;;;6268231;22;20171;-84
2021/11/22 04:15:06;;;;;;;13.47;10.50;;;4.40;99.90;;;;;;6264939;22;20171;-85
2021/11/22 04:17:38;;;;;;;14.83;10.80;;;4.50;99.90;;;;;;6266757;22;20169;-85
2021/11/22 04:20:11;;;;;;;12.93;10.70;;;4.50;99.90;;;;;;6265059;22;20178;-85
2021/11/22 04:22:43;;;;;;;15.37;11.47;;;4.50;99.90;;;;;;6266490;23;20172;-85
2021/11/22 04:25:19;;;;;;;14.43;11.40;;;4.50;99.90;;;;;;6270195;22;20250;-85
2021/11/22 04:27:53;;;;;;;17.57;12.93;;;4.50;99.90;;;;;;6273534;22;20231;-83
2021/11/22 04:30:25;;;;;;;16.77;12.17;;;4.60;99.90;;;;;;6267778;22;20199;-85
2021/11/22 04:32:56;;;;;;;16.03;11.70;;;4.60;99.90;;;;;;6263758;22;20248;-85
2021/11/22 04:35:29;;;;;;;19.43;12.93;;;4.60;99.90;;;;;;6263836;22;20206;-85
2021/11/22 04:38:01;;;;;;;20.33;13.20;;;4.60;99.90;;;;;;6265495;22;20266;-84
2021/11/22 04:40:47;;;;;;;17.30;13.80;;;4.60;99.90;;;;;;6262912;22;20191;-85
2021/11/22 04:43:20;;;;;;;21.27;13.87;;;4.50;99.90;;;;;;6258668;22;20164;-85
2021/11/22 04:45:51;;;;;;;22.73;14.70;;;4.50;99.90;;;;;;6253800;23;20175;-84
2021/11/22 04:48:23;;;;;;;17.03;12.23;;;4.40;99.90;;;;;;6253482;22;20246;-84
2021/11/22 04:50:55;;;;;;;18.73;12.90;;;4.40;99.90;;;;;;6259895;22;20200;-84
2021/11/22 04:53:27;;;;;;;20.10;15.37;;;4.30;99.90;;;;;;6256753;23;20219;-85
2021/11/22 04:56:00;;;;;;;17.73;12.63;;;4.30;99.90;;;;;;6257110;22;20190;-84
2021/11/22 04:58:32;;;;;;;16.57;12.63;;;4.30;99.90;;;;;;6255896;22;20178;-85
2021/11/22 05:01:04;;;;;;;14.67;11.10;;;4.30;99.90;;;;;;6250796;22;20175;-85
2021/11/22 05:03:36;;;;;;;15.47;10.97;;;4.30;99.90;;;;;;6251982;22;20172;-85
2021/11/22 05:06:08;;;;;;;12.87;10.43;;;4.20;99.90;;;;;;6257817;22;20231;-85
2021/11/22 05:08:40;;;;;;;13.77;10.57;;;4.20;99.90;;;;;;6258475;22;20693;-85
2021/11/22 05:11:14;;;;;;;13.67;10.03;;;4.20;99.90;;;;;;6255940;22;20195;-85
2021/11/22 05:13:45;;;;;;;13.33;10.63;;;4.10;99.90;;;;;;6250797;22;20171;-85
2021/11/22 05:16:17;;;;;;;15.33;10.93;;;4.10;99.90;;;;;;6264405;22;20240;-86
2021/11/22 05:18:50;;;;;;;13.83;10.23;;;4.10;99.90;;;;;;6263723;23;20171;-84
2021/11/22 05:21:21;;;;;;;11.67;9.10;;;4.10;99.90;;;;;;6251007;22;20172;-84
2021/11/22 05:23:54;;;;;;;15.10;10.20;;;4.00;99.90;;;;;;6251043;23;20535;-84
2021/11/22 05:26:29;;;;;;;11.43;9.60;;;4.00;99.90;;;;;;6252457;23;20583;-85
2021/11/22 05:29:01;;;;;;;13.23;10.20;;;4.00;99.90;;;;;;6259961;22;20572;-84
2021/11/22 05:31:33;;;;;;;11.40;8.97;;;4.00;99.90;;;;;;6258492;22;20290;-84
2021/11/22 05:34:04;;;;;;;11.20;9.17;;;3.90;99.90;;;;;;6262745;22;20188;-85
2021/11/22 05:36:36;;;;;;;13.80;9.57;;;3.80;99.90;;;;;;6264029;23;20175;-85
2021/11/22 05:39:09;;;;;;;10.33;8.60;;;3.80;99.90;;;;;;6264456;23;20235;-85
2021/11/22 05:41:42;;;;;;;13.47;9.97;;;3.80;99.90;;;;;;6262773;22;20175;-85
2021/11/22 05:44:14;;;;;;;16.10;10.20;;;3.80;99.90;;;;;;6264919;22;20164;-86
2021/11/22 05:46:46;;;;;;;12.30;10.20;;;3.60;99.90;;;;;;6260170;22;20198;-84
2021/11/22 05:49:17;;;;;;;11.70;9.73;;;3.60;99.90;;;;;;6262991;22;20202;-84
2021/11/22 05:51:50;;;;;;;12.17;9.67;;;3.50;99.90;;;;;;6264877;22;20195;-85
2021/11/22 05:54:23;;;;;;;12.67;10.13;;;3.50;99.90;;;;;;6256758;23;20175;-85
2021/11/22 05:56:57;;;;;;;11.53;8.80;;;3.50;99.90;;;;;;6250008;22;20190;-85
2021/11/22 05:59:30;;;;;;;11.57;8.77;;;3.50;99.90;;;;;;6250756;22;20242;-86
2021/11/22 06:02:02;;;;;;;13.03;9.00;;;3.50;99.90;;;;;;6251453;22;20179;-85
2021/11/22 06:04:34;;;;;;;12.00;9.50;;;3.50;99.90;;;;;;6251722;22;20171;-85
2021/11/22 06:07:06;;;;;;;11.30;8.63;;;3.50;99.90;;;;;;6249855;22;20175;-86
2021/11/22 06:09:38;;;;;;;11.83;8.53;;;3.40;99.90;;;;;;6252502;23;20174;-89
2021/11/22 06:12:12;;;;;;;11.43;8.70;;;3.40;99.90;;;;;;6255065;23;20531;-85
2021/11/22 06:14:44;;;;;;;12.63;8.90;;;3.40;99.90;;;;;;6260644;22;20171;-85
2021/11/22 06:17:16;;;;;;;11.20;9.00;;;3.50;99.90;;;;;;6252329;23;20259;-85
2021/11/22 06:19:48;;;;;;;9.63;8.10;;;3.40;99.90;;;;;;6251891;23;20172;-85
2021/11/22 06:22:19;;;;;;;12.57;9.33;;;3.40;99.90;;;;;;6252880;22;20176;-84
2021/11/22 06:24:53;;;;;;;12.57;9.30;;;3.50;99.90;;;;;;6253178;22;20183;-86
2021/11/22 06:27:26;;;;;;;12.20;9.07;;;3.40;99.90;;;;;;6251949;22;20286;-86
2021/11/22 06:29:58;;;;;;;11.73;9.10;;;3.40;99.90;;;;;;6258376;22;20185;-84
2021/11/22 06:32:30;;;;;;;10.50;8.00;;;3.40;99.90;;;;;;6251506;23;20199;-84
2021/11/22 06:35:02;;;;;;;12.67;8.27;;;3.40;99.90;;;;;;6250634;23;20164;-84
2021/11/22 06:37:34;;;;;;;11.00;7.73;;;3.40;99.90;;;;;;6252570;22;20170;-85
2021/11/22 06:40:09;;;;;;;8.70;7.10;;;3.40;99.90;;;;;;6253637;22;20164;-85
2021/11/22 06:42:43;;;;;;;11.27;7.73;;;3.50;99.90;;;;;;6255442;22;20164;-85
2021/11/22 06:45:14;;;;;;;11.00;7.77;;;3.50;99.90;;;;;;6273195;22;20208;-86
2021/11/22 06:47:46;;;;;;;11.03;7.53;;;3.50;99.90;;;;;;6271291;22;20203;-87
2021/11/22 06:50:18;;;;;;;11.57;7.37;;;3.40;99.90;;;;;;6261079;22;20248;-84
2021/11/22 06:52:50;;;;;;;9.20;7.20;;;3.40;99.90;;;;;;6251141;22;20214;-85
2021/11/22 06:55:22;;;;;;;8.77;7.40;;;3.40;99.90;;;;;;6249226;22;20238;-85
2021/11/22 06:57:55;;;;;;;9.80;7.37;;;3.30;99.90;;;;;;6250165;22;20703;-85
2021/11/22 07:00:27;;;;;;;8.43;6.97;;;3.30;99.90;;;;;;6250588;23;20179;-85
2021/11/22 07:02:59;;;;;;;10.07;7.93;;;3.20;99.90;;;;;;6250116;22;20175;-86
2021/11/22 07:05:31;;;;;;;11.27;8.37;;;3.20;99.90;;;;;;6249629;23;20176;-85
2021/11/22 07:08:04;;;;;;;9.33;7.63;;;3.10;99.90;;;;;;6249851;22;20182;-85
2021/11/22 07:10:36;;;;;;;9.93;8.10;;;3.10;99.90;;;;;;6249108;23;20171;-85
2021/11/22 07:13:10;;;;;;;10.87;7.93;;;3.10;99.90;;;;;;6249109;23;20225;-86
2021/11/22 07:15:42;;;;;;;11.03;8.37;;;3.10;99.90;;;;;;6248220;23;20172;-85
2021/11/22 07:18:14;;;;;;;12.93;8.37;;;3.10;99.90;;;;;;6249011;22;20186;-86
2021/11/22 07:20:47;;;;;;;10.57;8.67;;;3.10;99.90;;;;;;6247340;23;20275;-84
2021/11/22 07:23:22;;;;;;;12.80;9.50;;;3.10;99.90;;;;;;6249061;22;20168;-85
2021/11/22 07:25:54;;;;;;;13.27;9.43;;;3.10;99.90;;;;;;6254942;23;20175;-84
2021/11/22 07:28:28;;;;;;;13.97;8.97;;;3.10;99.90;;;;;;6255668;22;20176;-84
2021/11/22 07:31:00;;;;;;;13.40;9.30;;;3.10;99.90;;;;;;6250254;22;20174;-86
2021/11/22 07:33:32;;;;;;;13.87;9.63;;;3.10;99.90;;;;;;6262932;22;20207;-87
2021/11/22 07:36:04;;;;;;;13.80;9.53;;;3.10;99.90;;;;;;6247882;23;20183;-86
2021/11/22 07:38:37;;;;;;;15.80;9.27;;;3.10;99.90;;;;;;6261185;23;20175;-85
2021/11/22 07:41:09;;;;;;;11.07;8.87;;;3.10;99.90;;;;;;6252742;22;20599;-85
2021/11/22 07:43:43;;;;;;;11.67;9.50;;;3.10;99.90;;;;;;6255821;23;20251;-86
2021/11/22 07:46:15;;;;;;;13.53;9.37;;;3.10;99.90;;;;;;6264994;23;20258;-85
2021/11/22 07:48:48;;;;;;;11.60;8.87;;;3.10;99.90;;;;;;6257868;23;20233;-86
2021/11/22 07:51:19;;;;;;;12.00;9.10;;;3.00;99.90;;;;;;6249152;22;20370;-82
2021/11/22 07:53:51;;;;;;;15.20;10.03;;;3.00;99.90;;;;;;6248533;22;20191;-85
2021/11/22 07:56:23;;;;;;;14.13;9.83;;;2.90;99.90;;;;;;6255788;22;20259;-85
2021/11/22 07:58:57;;;;;;;14.00;10.57;;;2.90;99.90;;;;;;6247187;23;20513;-85
2021/11/22 08:01:30;;;;;;;15.80;10.43;;;2.90;99.90;;;;;;6248898;22;20185;-86
2021/11/22 08:04:02;;;;;;;17.97;10.33;;;2.80;99.90;;;;;;6248695;22;20226;-86
2021/11/22 08:06:34;;;;;;;14.30;10.37;;;2.80;99.90;;;;;;6249386;22;20638;-85
2021/11/22 08:09:12;;;;;;;14.00;10.00;;;2.80;99.90;;;;;;6251581;22;20164;-84
2021/11/22 08:14:30;;;;;;;13.87;10.13;;;2.80;99.90;;;;;;6247917;22;20254;-85
2021/11/22 08:17:10;;;;;;;17.07;10.43;;;2.80;99.90;;;;;;6248094;22;20194;-87
2021/11/22 08:19:44;;;;;;;15.57;10.13;;;2.80;99.90;;;;;;6257319;22;20170;-85
2021/11/22 08:22:15;;;;;;;12.70;9.53;;;2.70;99.90;;;;;;6256097;22;20164;-86
2021/11/22 08:24:50;;;;;;;13.67;9.87;;;2.70;99.90;;;;;;6248558;22;20634;-86
2021/11/22 08:27:23;;;;;;;11.00;8.83;;;2.70;99.90;;;;;;6247863;23;20595;-86
2021/11/22 08:29:57;;;;;;;13.03;9.77;;;2.60;99.90;;;;;;6249699;22;20246;-86
2021/11/22 08:32:29;;;;;;;14.10;9.53;;;2.60;99.90;;;;;;6248637;23;20288;-85
2021/11/22 08:35:00;;;;;;;13.43;9.87;;;2.50;99.90;;;;;;6249430;22;20199;-86
2021/11/22 08:37:33;;;;;;;13.13;9.20;;;2.50;99.90;;;;;;6249818;22;20175;-86
2021/11/22 08:40:06;;;;;;;12.50;8.63;;;2.50;99.90;;;;;;6249215;22;20182;-86
2021/11/22 08:42:38;;;;;;;13.30;8.53;;;2.40;99.90;;;;;;6249838;22;20175;-86
2021/11/22 08:45:13;;;;;;;12.37;8.87;;;2.40;99.90;;;;;;6248176;22;20182;-85
2021/11/22 08:47:44;;;;;;;12.63;8.90;;;2.30;99.90;;;;;;6248692;22;20171;-85
2021/11/22 08:50:16;;;;;;;10.83;8.47;;;2.30;99.90;;;;;;6249499;22;20517;-85
2021/11/22 08:52:49;;;;;;;12.23;8.33;;;2.20;99.90;;;;;;6249643;23;20662;-86
2021/11/22 08:55:21;;;;;;;11.37;8.27;;;2.20;99.90;;;;;;6247044;23;20176;-85
2021/11/22 08:57:53;;;;;;;10.73;8.17;;;2.20;99.90;;;;;;6249340;23;20610;-87
2021/11/22 09:00:31;;;;;;;10.53;8.43;;;2.20;99.90;;;;;;6264198;22;20192;-85
2021/11/22 09:03:02;;;;;;;14.40;9.40;;;2.20;99.90;;;;;;6270241;23;20167;-86
2021/11/22 09:05:34;;;;;;;14.40;9.40;;;2.00;99.90;;;;;;6266742;22;20231;-85
2021/11/22 09:08:06;;;;;;;13.77;9.27;;;1.90;99.90;;;;;;6251056;23;20174;-86
2021/11/22 09:10:38;;;;;;;10.07;7.53;;;1.90;99.90;;;;;;6250540;22;20175;-87
2021/11/22 09:13:10;;;;;;;11.50;8.53;;;2.00;99.90;;;;;;6248255;22;20211;-86
2021/11/22 09:15:45;;;;;;;11.17;8.70;;;2.00;99.90;;;;;;6247979;22;20176;-86
2021/11/22 09:18:16;;;;;;;11.97;8.33;;;2.00;99.90;;;;;;6248829;22;20171;-86
2021/11/22 09:20:48;;;;;;;11.57;8.73;;;2.00;99.90;;;;;;6248111;23;20173;-86
2021/11/22 09:23:20;;;;;;;11.23;8.13;;;2.00;99.90;;;;;;6249007;22;20195;-86
2021/11/22 09:25:52;;;;;;;10.23;7.73;;;1.90;99.90;;;;;;6248077;22;20202;-86
2021/11/22 09:28:23;;;;;;;10.57;7.77;;;1.90;99.90;;;;;;6250009;23;20160;-87
2021/11/22 09:30:57;;;;;;;10.13;7.83;;;1.90;99.90;;;;;;6252745;23;20172;-87
2021/11/22 09:33:29;;;;;;;10.77;7.07;;;1.90;99.90;;;;;;6256500;22;20219;-87
2021/11/22 09:36:00;;;;;;;21.10;7.97;;;1.90;99.90;;;;;;6261786;23;20243;-87
2021/11/22 09:38:33;;;;;;;9.73;7.13;;;1.90;99.90;;;;;;6265922;23;20176;-87
2021/11/22 09:41:04;;;;;;;10.13;6.97;;;1.90;99.90;;;;;;6267161;23;20172;-86
2021/11/22 09:43:36;;;;;;;9.80;7.47;;;2.00;99.90;;;;;;6265562;23;20187;-86
2021/11/22 09:46:10;;;;;;;10.57;7.53;;;1.90;99.90;;;;;;6250179;22;20573;-86
2021/11/22 09:48:42;;;;;;;9.13;7.73;;;1.90;99.90;;;;;;6247771;22;20200;-87
2021/11/22 09:51:14;;;;;;;9.33;6.87;;;1.80;99.90;;;;;;6246770;22;20499;-87
2021/11/22 09:53:45;;;;;;;12.33;7.23;;;1.80;99.90;;;;;;6247891;22;20210;-87
2021/11/22 09:56:17;;;;;;;10.63;7.60;;;1.90;99.90;;;;;;6247369;22;20185;-86
2021/11/22 09:58:50;;;;;;;9.10;6.70;;;1.90;99.90;;;;;;6247280;23;20175;-86
2021/11/22 10:01:25;;;;;;;10.77;7.40;;;1.90;99.90;;;;;;6247872;22;20653;-87
2021/11/22 10:04:02;;;;;;;8.30;6.77;;;1.80;99.90;;;;;;6248444;22;20170;-86
2021/11/22 10:06:52;;;;;;;8.50;6.73;;;1.80;99.90;;;;;;6248295;23;20618;-86
2021/11/22 10:09:45;;;;;;;9.20;7.10;;;1.80;99.90;;;;;;6248130;22;20174;-85
2021/11/22 10:12:21;;;;;;;10.40;7.17;;;1.80;99.90;;;;;;6249935;23;20625;-86
2021/11/22 10:14:57;;;;;;;8.87;7.07;;;1.80;99.90;;;;;;6247952;22;20207;-84
2021/11/22 10:17:34;;;;;;;12.83;7.30;;;1.90;99.90;;;;;;6246613;23;20215;-85
2021/11/22 10:20:18;;;;;;;10.77;7.60;;;1.90;99.90;;;;;;6248635;23;20171;-87
2021/11/22 10:22:56;;;;;;;11.73;8.00;;;1.90;99.90;;;;;;6250100;23;20194;-87
2021/11/22 10:25:34;;;;;;;12.10;7.90;;;1.90;99.90;;;;;;6250192;22;20226;-86
2021/11/22 10:28:09;;;;;;;13.30;9.10;;;2.00;99.90;;;;;;6250551;23;20176;-86
2021/11/22 10:30:44;;;;;;;13.93;9.83;;;2.00;99.90;;;;;;6250286;23;20576;-84
2021/11/22 10:33:19;;;;;;;11.13;8.33;;;2.00;99.90;;;;;;6249662;23;20215;-86
2021/11/22 10:35:53;;;;;;;11.07;8.03;;;2.00;99.90;;;;;;6248349;22;20282;-87
2021/11/22 10:38:26;;;;;;;13.23;8.67;;;2.00;99.90;;;;;;6249937;22;20182;-86
2021/11/22 10:41:01;;;;;;;16.63;9.13;;;2.00;99.90;;;;;;6250043;23;20176;-86
2021/11/22 10:43:39;;;;;;;11.70;8.83;;;2.00;99.90;;;;;;6248062;23;20169;-85
2021/11/22 10:46:12;;;;;;;12.67;8.90;;;2.00;99.90;;;;;;6252352;22;20489;-86
2021/11/22 10:48:50;;;;;;;11.53;8.63;;;2.00;99.90;;;;;;6249721;22;20178;-87
2021/11/22 10:51:24;;;;;;;11.90;7.93;;;2.00;99.90;;;;;;6251215;23;20183;-86
2021/11/22 10:53:57;;;;;;;13.47;9.20;;;2.00;99.90;;;;;;6250065;22;20195;-87
2021/11/22 10:56:30;;;;;;;11.20;8.10;;;1.90;99.90;;;;;;6253948;22;20259;-86
2021/11/22 10:59:07;;;;;;;13.50;9.10;;;2.00;99.90;;;;;;6251663;23;20508;-86
2021/11/22 11:01:43;;;;;;;11.63;8.43;;;1.90;99.90;;;;;;6250576;23;20160;-86
2021/11/22 11:04:23;;;;;;;12.43;8.17;;;1.90;99.90;;;;;;6250494;22;20261;-87
2021/11/22 11:06:57;;;;;;;10.00;7.80;;;1.90;99.90;;;;;;6249651;22;20241;-87
2021/11/22 11:09:33;;;;;;;13.83;8.20;;;1.80;99.90;;;;;;6250564;22;20247;-86
2021/11/22 11:12:09;;;;;;;15.97;8.87;;;1.80;99.90;;;;;;6250689;23;20180;-86
2021/11/22 11:14:43;;;;;;;12.23;7.40;;;1.80;99.90;;;;;;6250834;22;20206;-86
2021/11/22 11:17:18;;;;;;;11.03;7.70;;;1.80;99.90;;;;;;6256116;23;20186;-86
2021/11/22 11:19:55;;;;;;;10.10;7.40;;;1.70;99.90;;;;;;6271036;23;20198;-86
2021/11/22 11:22:30;;;;;;;9.77;7.07;;;1.70;99.90;;;;;;6271429;23;20219;-86
2021/11/22 11:25:03;;;;;;;10.87;7.37;;;1.70;99.90;;;;;;6254515;23;20172;-89
2021/11/22 11:27:43;;;;;;;13.60;8.07;;;1.70;99.90;;;;;;6248546;22;20182;-86
2021/11/22 11:30:17;;;;;;;9.20;6.57;;;1.80;99.90;;;;;;6249680;23;20163;-87
2021/11/22 11:32:50;;;;;;;11.20;7.40;;;2.10;99.90;;;;;;6249319;22;20190;-87
2021/11/22 11:35:25;;;;;;;10.37;8.30;;;2.20;99.90;;;;;;6247502;22;20261;-87
2021/11/22 11:38:07;;;;;;;8.67;6.67;;;2.20;99.90;;;;;;6245560;22;20175;-87
2021/11/22 11:40:58;;;;;;;11.23;7.67;;;2.30;99.90;;;;;;6248692;22;20175;-88
2021/11/22 11:43:51;;;;;;;11.37;7.03;;;2.70;99.90;;;;;;6248459;23;20614;-87
2021/11/22 11:46:36;;;;;;;11.13;7.73;;;3.10;99.90;;;;;;6247871;22;20167;-87
2021/11/22 11:49:12;;;;;;;12.93;8.73;;;3.50;99.90;;;;;;6249385;22;20168;-87
2021/11/22 11:51:48;;;;;;;13.57;8.03;;;3.60;99.90;;;;;;6249086;23;20538;-88
2021/11/22 11:54:23;;;;;;;8.93;6.83;;;4.10;99.90;;;;;;6248674;22;20285;-87
2021/11/22 11:56:58;;;;;;;8.50;6.30;;;4.50;99.90;;;;;;6248114;23;20238;-88
2021/11/22 11:59:37;;;;;;;10.73;6.97;;;4.70;99.90;;;;;;6249676;22;20171;-88
2021/11/22 12:02:11;;;;;;;9.23;6.37;;;4.80;99.90;;;;;;6248566;23;20206;-88
2021/11/22 12:04:59;;;;;;;11.70;6.13;;;4.80;99.90;;;;;;6249238;23;20599;-87
2021/11/22 12:07:39;;;;;;;10.53;7.43;;;4.80;99.90;;;;;;6253342;23;20234;-87
2021/11/22 12:10:22;;;;;;;8.93;6.17;;;5.00;99.90;;;;;;6254663;22;20255;-88
2021/11/22 12:13:05;;;;;;;20.87;9.40;;;5.00;99.90;;;;;;6249579;22;20176;-89
2021/11/22 12:15:44;;;;;;;5.20;4.00;;;5.40;99.90;;;;;;6248988;23;20281;-88
2021/11/22 12:18:37;;;;;;;6.67;5.80;;;5.90;99.90;;;;;;6249127;22;20241;-87
2021/11/22 12:21:23;;;;;;;7.93;5.70;;;5.90;99.90;;;;;;6249052;22;20179;-87
2021/11/22 12:23:59;;;;;;;5.73;4.40;;;6.10;99.90;;;;;;6248827;23;20184;-87
2021/11/22 12:26:35;;;;;;;6.50;4.73;;;6.10;99.90;;;;;;6247518;23;20630;-87
2021/11/22 12:29:08;;;;;;;5.73;3.60;;;6.20;99.90;;;;;;6249075;22;20164;-88
2021/11/22 12:31:48;;;;;;;5.90;4.00;;;6.10;99.90;;;;;;6248870;23;20254;-87
2021/11/22 12:34:39;;;;;;;7.57;6.53;;;6.00;99.90;;;;;;6248310;22;20262;-87
2021/11/22 12:37:28;;;;;;;4.73;3.60;;;6.00;99.90;;;;;;6247562;23;20247;-88
2021/11/22 12:40:13;;;;;;;4.53;3.50;;;6.00;99.90;;;;;;6248421;22;20186;-88
2021/11/22 12:42:49;;;;;;;4.93;3.53;;;6.00;99.90;;;;;;6248209;23;20186;-88
2021/11/22 12:45:21;;;;;;;4.43;3.77;;;5.90;99.90;;;;;;6247431;22;20174;-87
2021/11/22 12:47:52;;;;;;;5.27;4.77;;;5.90;99.90;;;;;;6248897;23;20179;-87
2021/11/22 12:50:25;;;;;;;5.73;3.60;;;5.90;99.90;;;;;;6248196;23;20182;-88
2021/11/22 12:53:14;;;;;;;4.80;3.37;;;6.00;99.90;;;;;;6249015;23;20179;-88
2021/11/22 12:55:49;;;;;;;6.17;3.60;;;6.00;99.90;;;;;;6247763;23;20597;-88
2021/11/22 12:58:24;;;;;;;3.67;2.90;;;6.00;99.90;;;;;;6249391;22;20167;-88
2021/11/22 13:00:58;;;;;;;3.30;3.00;;;6.00;99.90;;;;;;6251746;23;20183;-87
2021/11/22 13:03:30;;;;;;;3.87;2.50;;;6.00;99.90;;;;;;6248159;22;20450;-87
2021/11/22 13:06:16;;;;;;;4.60;2.80;;;6.20;99.90;;;;;;6246849;23;20175;-87
2021/11/22 13:08:52;;;;;;;3.60;2.90;;;6.20;99.90;;;;;;6248739;23;20198;-87
2021/11/22 13:11:52;;;;;;;4.33;2.33;;;6.10;99.90;;;;;;6247519;23;20184;-87
2021/11/22 13:14:26;;;;;;;3.73;2.50;;;6.00;99.90;;;;;;6247928;23;20182;-87
2021/11/22 13:16:59;;;;;;;4.93;2.83;;;6.20;99.90;;;;;;6247869;23;20195;-87
2021/11/22 13:19:31;;;;;;;3.30;3.00;;;6.30;99.90;;;;;;6248262;22;20247;-85
2021/11/22 13:22:06;;;;;;;2.50;2.30;;;6.30;99.90;;;;;;6248266;23;20633;-86
2021/11/22 13:24:39;;;;;;;3.70;2.70;;;6.40;99.90;;;;;;6249222;22;20215;-86
2021/11/22 13:27:13;;;;;;;4.13;2.87;;;6.30;99.90;;;;;;6248824;22;20164;-86
2021/11/22 13:29:44;;;;;;;4.07;3.07;;;6.30;99.90;;;;;;6249001;22;20565;-86
2021/11/22 13:32:15;;;;;;;5.60;3.30;;;6.20;99.90;;;;;;6249230;22;20176;-85
2021/11/22 13:34:47;;;;;;;5.00;2.93;;;6.20;99.90;;;;;;6250983;23;20199;-86
2021/11/22 13:37:20;;;;;;;3.73;2.87;;;6.20;99.90;;;;;;6267860;23;20164;-85
2021/11/22 13:39:52;;;;;;;3.00;2.23;;;6.30;99.90;;;;;;6272163;22;20170;-89